createdAt,value
2019-03-05T00:00:36.872Z,55.00
2019-03-05T00:03:05.676Z,54.90
2019-03-05T00:05:34.097Z,55.50
2019-03-05T00:08:02.522Z,55.00
2019-03-05T00:10:31.029Z,55.90
2019-03-05T00:12:59.450Z,56.00
2019-03-05T00:15:29.437Z,55.20
2019-03-05T00:17:57.882Z,55.10
2019-03-05T00:20:26.392Z,55.90
2019-03-05T00:22:54.883Z,55.90
2019-03-05T00:25:25.960Z,55.40
2019-03-05T00:28:07.995Z,56.00
2019-03-05T00:30:58.301Z,56.30
2019-03-05T00:33:38.553Z,56.90
2019-03-05T00:36:19.037Z,57.40
2019-03-05T00:38:56.163Z,58.20
2019-03-05T00:41:36.983Z,58.00
2019-03-05T00:44:17.517Z,58.20
2019-03-05T00:47:00.969Z,58.50
2019-03-05T00:49:59.602Z,59.10
2019-03-05T00:52:37.293Z,59.00
2019-03-05T00:55:20.914Z,59.40
2019-03-05T00:58:01.087Z,59.90
2019-03-05T01:00:44.774Z,60.20
2019-03-05T01:03:34.427Z,60.40
2019-03-05T01:06:23.519Z,61.00
2019-03-05T01:08:53.999Z,60.90
2019-03-05T01:11:22.947Z,60.70
2019-03-05T01:13:51.509Z,60.00
2019-03-05T01:16:24.197Z,59.90
2019-03-05T01:18:53.050Z,59.70
2019-03-05T01:21:21.497Z,59.20
2019-03-05T01:23:49.925Z,58.80
2019-03-05T01:26:18.351Z,57.80
2019-03-05T01:28:46.785Z,58.30
2019-03-05T01:31:17.393Z,58.30
2019-03-05T01:34:05.974Z,58.50
2019-03-05T01:36:38.828Z,58.00
2019-03-05T01:39:28.231Z,57.90
2019-03-05T01:41:56.725Z,56.90
2019-03-05T01:44:25.163Z,58.80
2019-03-05T01:46:54.881Z,60.60
2019-03-05T01:49:23.297Z,64.30
2019-03-05T01:51:51.829Z,64.70
2019-03-05T01:54:20.311Z,64.40
2019-03-05T01:56:49.518Z,64.60
2019-03-05T01:59:18.192Z,63.20
2019-03-05T02:01:46.902Z,64.20
2019-03-05T02:04:15.395Z,65.20
2019-03-05T02:06:43.836Z,65.00
2019-03-05T02:09:12.578Z,66.20
2019-03-05T02:11:41.350Z,66.20
2019-03-05T02:14:09.745Z,66.20
2019-03-05T02:16:38.472Z,67.20
2019-03-05T02:19:38.189Z,67.70
2019-03-05T02:22:09.562Z,67.70
2019-03-05T02:25:00.846Z,68.50
2019-03-05T02:28:07.070Z,67.90
2019-03-05T02:30:47.355Z,68.00
2019-03-05T02:33:28.203Z,68.20
2019-03-05T02:36:08.020Z,68.10
2019-03-05T02:38:57.173Z,68.00
2019-03-05T02:41:58.813Z,68.00
2019-03-05T02:44:48.687Z,67.80
2019-03-05T02:47:38.590Z,68.30
2019-03-05T02:50:10.213Z,68.20
2019-03-05T02:52:47.249Z,68.10
2019-03-05T02:55:30.778Z,68.40
2019-03-05T02:57:58.233Z,69.20
2019-03-05T03:00:28.330Z,67.70
2019-03-05T03:03:01.410Z,67.80
2019-03-05T03:05:43.154Z,68.50
2019-03-05T03:08:12.996Z,67.70
2019-03-05T03:10:41.561Z,67.60
2019-03-05T03:13:10.084Z,67.20
2019-03-05T03:15:38.554Z,67.70
2019-03-05T03:18:07.025Z,68.00
2019-03-05T03:20:35.471Z,67.70
2019-03-05T03:23:03.886Z,68.10
2019-03-05T03:25:32.285Z,68.00
2019-03-05T03:28:00.709Z,68.00
2019-03-05T03:30:29.956Z,67.90
2019-03-05T03:32:58.363Z,68.10
2019-03-05T03:35:26.780Z,68.10
2019-03-05T03:37:55.582Z,67.50
2019-03-05T03:40:24.160Z,67.20
2019-03-05T03:42:52.805Z,67.40
2019-03-05T03:45:21.713Z,66.60
2019-03-05T03:47:50.570Z,66.60
2019-03-05T03:50:19.063Z,66.40
2019-03-05T03:52:47.546Z,66.50
2019-03-05T03:55:16.226Z,66.50
2019-03-05T03:57:44.643Z,66.40
2019-03-05T04:00:18.319Z,66.50
2019-03-05T04:02:47.193Z,66.20
2019-03-05T04:05:15.661Z,66.00
2019-03-05T04:07:44.244Z,65.60
2019-03-05T04:10:14.466Z,65.90
2019-03-05T04:12:42.946Z,66.10
2019-03-05T04:15:16.470Z,66.30
2019-03-05T04:17:44.903Z,66.40
2019-03-05T04:20:16.999Z,66.30
2019-03-05T04:22:45.786Z,66.30
2019-03-05T04:25:14.198Z,66.30
2019-03-05T04:27:42.945Z,66.20
2019-03-05T04:30:13.538Z,66.30
2019-03-05T04:32:42.024Z,66.50
2019-03-05T04:35:12.078Z,66.20
2019-03-05T04:37:40.498Z,66.70
2019-03-05T04:40:10.747Z,65.90
2019-03-05T04:42:39.682Z,66.60
2019-03-05T04:45:48.708Z,66.90
2019-03-05T04:48:17.390Z,66.90
2019-03-05T04:50:53.290Z,66.80
2019-03-05T04:53:21.835Z,66.70
2019-03-05T04:55:50.254Z,66.70
2019-03-05T04:58:18.682Z,66.20
2019-03-05T05:00:47.101Z,66.00
2019-03-05T05:03:15.775Z,66.00
2019-03-05T05:05:44.489Z,65.80
2019-03-05T05:08:12.924Z,65.50
2019-03-05T05:10:41.362Z,65.90
2019-03-05T05:13:09.803Z,66.10
2019-03-05T05:15:38.450Z,65.80
2019-03-05T05:18:06.954Z,66.00
2019-03-05T05:20:35.424Z,65.50
2019-03-05T05:23:03.995Z,66.00
2019-03-05T05:25:32.407Z,65.30
2019-03-05T05:28:00.813Z,65.20
2019-03-05T05:30:37.476Z,65.30
2019-03-05T05:33:06.972Z,65.90
2019-03-05T05:35:35.405Z,65.90
2019-03-05T05:38:03.925Z,66.00
2019-03-05T05:40:34.881Z,65.50
2019-03-05T05:43:04.328Z,65.30
2019-03-05T05:45:41.762Z,65.30
2019-03-05T05:48:10.462Z,65.50
2019-03-05T05:50:38.919Z,65.40
2019-03-05T05:53:07.350Z,64.90
2019-03-05T05:55:35.804Z,64.00
2019-03-05T05:58:04.689Z,63.40
2019-03-05T06:00:33.615Z,63.60
2019-03-05T06:03:02.084Z,63.00
2019-03-05T06:05:30.558Z,63.10
2019-03-05T06:07:59.018Z,63.20
2019-03-05T06:10:27.501Z,62.60
2019-03-05T06:12:56.849Z,62.60
2019-03-05T06:15:25.273Z,62.70
2019-03-05T06:17:53.782Z,61.80
2019-03-05T06:20:22.354Z,61.60
2019-03-05T06:22:50.833Z,61.20
2019-03-05T06:25:19.342Z,60.70
2019-03-05T06:27:48.045Z,60.50
2019-03-05T06:30:18.707Z,60.70
2019-03-05T06:32:47.247Z,60.40
2019-03-05T06:35:15.761Z,60.00
2019-03-05T06:37:44.195Z,59.60
2019-03-05T06:40:17.760Z,59.30
2019-03-05T06:42:46.540Z,59.30
2019-03-05T06:45:17.143Z,59.40
2019-03-05T06:47:46.137Z,58.80
2019-03-05T06:50:16.749Z,58.40
2019-03-05T06:52:45.303Z,58.20
2019-03-05T06:55:15.238Z,57.80
2019-03-05T06:57:43.889Z,57.80
2019-03-05T07:00:35.554Z,60.10
2019-03-05T07:03:06.000Z,57.60
2019-03-05T07:06:11.392Z,57.30
2019-03-05T07:08:43.203Z,56.00
2019-03-05T07:11:20.439Z,55.90
2019-03-05T07:13:50.500Z,56.40
2019-03-05T07:16:47.690Z,55.60
2019-03-05T07:19:17.318Z,55.90
2019-03-05T07:21:51.380Z,56.40
2019-03-05T07:24:40.802Z,56.60
2019-03-05T07:27:09.895Z,56.30
2019-03-05T07:29:39.002Z,57.90
2019-03-05T07:32:07.504Z,60.30
2019-03-05T07:34:37.564Z,63.80
2019-03-05T07:37:07.843Z,67.00
2019-03-05T07:39:36.245Z,67.90
2019-03-05T07:42:04.795Z,69.40
2019-03-05T07:44:33.249Z,69.40
2019-03-05T07:47:02.626Z,69.90
2019-03-05T07:49:43.376Z,67.30
2019-03-05T07:52:04.196Z,65.00
2019-03-05T07:54:32.594Z,64.60
2019-03-05T07:57:01.214Z,65.60
2019-03-05T07:59:29.693Z,60.70
2019-03-05T08:01:58.156Z,60.20
2019-03-05T08:04:26.553Z,56.10
2019-03-05T08:06:54.984Z,53.10
2019-03-05T08:09:30.762Z,51.90
2019-03-05T08:12:17.293Z,51.60
2019-03-05T08:14:54.762Z,49.40
2019-03-05T08:17:23.918Z,50.00
2019-03-05T08:19:52.365Z,48.00
2019-03-05T08:22:20.967Z,46.80
2019-03-05T08:24:49.957Z,46.40
2019-03-05T08:27:18.420Z,45.40
2019-03-05T08:29:46.918Z,44.20
2019-03-05T08:32:15.370Z,44.30
2019-03-05T08:34:43.865Z,43.90
2019-03-05T08:37:13.458Z,43.50
2019-03-05T08:39:42.581Z,43.10
2019-03-05T08:42:10.979Z,43.40
2019-03-05T08:44:49.644Z,43.70
2019-03-05T08:47:09.562Z,43.70
2019-03-05T08:49:37.977Z,43.80
2019-03-05T08:52:06.396Z,43.50
2019-03-05T08:54:34.858Z,44.40
2019-03-05T08:57:03.787Z,43.80
2019-03-05T08:59:32.753Z,44.70
2019-03-05T09:02:01.629Z,44.20
2019-03-05T09:04:30.065Z,44.10
2019-03-05T09:06:58.819Z,42.40
2019-03-05T09:09:27.342Z,42.10
2019-03-05T09:11:55.958Z,42.30
2019-03-05T09:14:24.441Z,42.20
2019-03-05T09:16:52.850Z,41.30
2019-03-05T09:19:21.325Z,39.60
2019-03-05T09:21:50.290Z,40.40
2019-03-05T09:24:18.778Z,40.00
2019-03-05T09:26:51.569Z,39.50
2019-03-05T09:29:17.963Z,40.20
2019-03-05T09:31:46.397Z,38.80
2019-03-05T09:34:14.817Z,39.70
2019-03-05T09:36:51.034Z,39.00
2019-03-05T09:39:14.022Z,39.80
2019-03-05T09:41:42.442Z,38.40
2019-03-05T09:44:10.882Z,38.90
2019-03-05T09:46:39.325Z,37.70
2019-03-05T09:49:07.781Z,38.00
2019-03-05T09:51:36.276Z,37.10
2019-03-05T09:54:05.573Z,37.00
2019-03-05T09:56:33.969Z,35.30
2019-03-05T09:59:02.417Z,34.70
2019-03-05T10:01:30.830Z,35.40
2019-03-05T10:03:59.272Z,35.50
2019-03-05T10:06:27.688Z,35.70
2019-03-05T10:08:56.133Z,34.80
2019-03-05T10:11:24.779Z,35.80
2019-03-05T10:13:53.579Z,36.10
2019-03-05T10:16:22.003Z,35.00
2019-03-05T10:18:50.438Z,35.40
2019-03-05T10:21:19.246Z,35.70
2019-03-05T10:23:48.291Z,34.60
2019-03-05T10:26:18.689Z,35.20
2019-03-05T10:28:46.874Z,34.30
2019-03-05T10:31:15.303Z,33.70
2019-03-05T10:33:43.709Z,34.40
2019-03-05T10:36:12.176Z,34.90
2019-03-05T10:38:40.578Z,34.50
2019-03-05T10:41:09.097Z,33.00
2019-03-05T10:43:37.509Z,33.00
2019-03-05T10:46:06.053Z,32.90
2019-03-05T10:48:34.589Z,32.50
2019-03-05T10:51:03.079Z,32.50
2019-03-05T10:53:31.506Z,32.80
2019-03-05T10:55:59.937Z,30.90
2019-03-05T10:58:33.862Z,30.40
2019-03-05T11:00:58.540Z,30.30
2019-03-05T11:03:29.261Z,29.10
2019-03-05T11:05:57.694Z,30.10
2019-03-05T11:08:27.178Z,29.60
2019-03-05T11:10:56.479Z,28.40
2019-03-05T11:13:25.041Z,28.60
2019-03-05T11:15:59.424Z,28.70
2019-03-05T11:18:29.765Z,28.40
2019-03-05T11:20:58.053Z,27.30
2019-03-05T11:23:26.613Z,26.30
2019-03-05T11:25:55.132Z,26.60
2019-03-05T11:28:23.637Z,26.50
2019-03-05T11:30:52.187Z,26.70
2019-03-05T11:33:20.766Z,26.60
2019-03-05T11:35:49.394Z,26.90
2019-03-05T11:38:18.774Z,26.70
2019-03-05T11:40:47.253Z,26.60
2019-03-05T11:43:17.765Z,26.50
2019-03-05T11:45:46.596Z,26.80
2019-03-05T11:48:16.288Z,27.10
2019-03-05T11:50:45.372Z,26.60
2019-03-05T11:53:14.321Z,27.10
2019-03-05T11:55:42.911Z,26.70
2019-03-05T11:58:11.357Z,26.90
2019-03-05T12:00:47.460Z,27.50
2019-03-05T12:03:16.731Z,27.10
2019-03-05T12:05:45.146Z,26.60
2019-03-05T12:08:13.681Z,27.00
2019-03-05T12:10:42.158Z,27.60
2019-03-05T12:13:10.700Z,27.90
2019-03-05T12:15:43.598Z,27.70
2019-03-05T12:18:12.091Z,27.80
2019-03-05T12:20:40.512Z,27.70
2019-03-05T12:23:10.386Z,27.70
2019-03-05T12:25:40.001Z,27.30
2019-03-05T12:28:10.858Z,27.80
2019-03-05T12:30:39.884Z,28.30
2019-03-05T12:33:08.449Z,27.80
2019-03-05T12:35:36.900Z,27.80
2019-03-05T12:38:05.828Z,27.80
2019-03-05T12:40:34.309Z,27.60
2019-03-05T12:43:02.760Z,27.60
2019-03-05T12:45:31.560Z,27.40
2019-03-05T12:47:59.986Z,27.00
2019-03-05T12:50:30.782Z,27.30
2019-03-05T12:52:59.291Z,27.00
2019-03-05T12:55:27.776Z,27.90
2019-03-05T12:57:56.567Z,28.40
2019-03-05T13:00:27.483Z,28.00
2019-03-05T13:02:56.308Z,28.80
2019-03-05T13:05:25.079Z,28.80
2019-03-05T13:07:56.398Z,28.30
2019-03-05T13:10:26.038Z,28.70
2019-03-05T13:12:55.542Z,28.80
2019-03-05T13:15:39.141Z,28.70
2019-03-05T13:18:07.601Z,28.50
2019-03-05T13:20:36.065Z,28.60
2019-03-05T13:23:08.754Z,29.00
2019-03-05T13:25:34.906Z,30.30
2019-03-05T13:28:04.217Z,30.10
2019-03-05T13:30:33.724Z,30.50
2019-03-05T13:33:02.626Z,31.60
2019-03-05T13:35:32.198Z,32.30
2019-03-05T13:38:07.396Z,32.80
2019-03-05T13:40:38.538Z,32.70
2019-03-05T13:43:06.219Z,32.90
2019-03-05T13:45:36.855Z,34.60
2019-03-05T13:48:14.690Z,34.70
2019-03-05T13:51:09.762Z,34.80
2019-03-05T13:54:01.371Z,36.60
2019-03-05T13:56:44.105Z,36.40
2019-03-05T13:59:41.358Z,37.20
2019-03-05T14:02:10.515Z,36.40
2019-03-05T14:04:47.773Z,36.90
2019-03-05T14:07:28.273Z,36.30
2019-03-05T14:09:56.713Z,37.30
2019-03-05T14:12:25.204Z,36.90
2019-03-05T14:14:53.599Z,36.90
2019-03-05T14:17:23.407Z,37.20
2019-03-05T14:19:53.342Z,39.00
2019-03-05T14:22:21.925Z,38.00
2019-03-05T14:24:58.275Z,37.90
2019-03-05T14:27:20.559Z,40.00
2019-03-05T14:29:48.985Z,41.10
2019-03-05T14:32:17.429Z,43.10
2019-03-05T14:34:49.052Z,44.30
2019-03-05T14:37:17.547Z,47.70
2019-03-05T14:39:46.035Z,51.10
2019-03-05T14:42:14.624Z,52.60
2019-03-05T14:44:43.210Z,54.10
2019-03-05T14:47:11.656Z,54.90
2019-03-05T14:49:40.092Z,55.60
2019-03-05T14:52:08.603Z,56.60
2019-03-05T14:54:37.121Z,56.90
2019-03-05T14:57:05.721Z,55.90
2019-03-05T14:59:34.197Z,56.50
2019-03-05T15:02:02.684Z,56.80
2019-03-05T15:04:31.173Z,56.50
2019-03-05T15:06:59.588Z,55.20
2019-03-05T15:09:28.228Z,56.40
2019-03-05T15:11:56.690Z,56.80
2019-03-05T15:14:25.269Z,57.80
2019-03-05T15:16:53.745Z,57.60
2019-03-05T15:19:22.170Z,56.80
2019-03-05T15:21:51.445Z,55.90
2019-03-05T15:24:20.380Z,56.20
2019-03-05T15:26:51.267Z,55.30
2019-03-05T15:29:20.182Z,56.40
2019-03-05T15:31:49.161Z,57.90
2019-03-05T15:34:17.697Z,58.80
2019-03-05T15:36:47.251Z,58.40
2019-03-05T15:39:16.136Z,57.40
2019-03-05T15:44:17.199Z,58.10
2019-03-05T15:46:46.006Z,58.30
2019-03-05T15:49:16.262Z,57.40
2019-03-05T15:51:48.124Z,58.30
2019-03-05T15:54:16.676Z,60.20
2019-03-05T15:56:46.244Z,62.10
2019-03-05T15:59:15.173Z,64.00
2019-03-05T16:01:43.991Z,62.40
2019-03-05T16:04:12.802Z,63.70
2019-03-05T16:06:42.955Z,62.20
2019-03-05T16:09:15.992Z,62.00
2019-03-05T16:11:45.501Z,60.60
2019-03-05T16:14:13.955Z,61.70
2019-03-05T16:16:42.373Z,61.90
2019-03-05T16:19:12.430Z,63.10
2019-03-05T16:21:41.577Z,62.60
2019-03-05T16:24:11.315Z,62.20
2019-03-05T16:26:39.878Z,63.70
2019-03-05T16:29:08.740Z,62.60
2019-03-05T16:31:45.366Z,62.20
2019-03-05T16:34:14.414Z,61.90
2019-03-05T16:36:44.778Z,61.30
2019-03-05T16:39:18.290Z,59.90
2019-03-05T16:41:53.509Z,59.20
2019-03-05T16:44:38.907Z,60.00
2019-03-05T16:47:25.613Z,60.70
2019-03-05T16:50:11.556Z,61.20
2019-03-05T16:52:57.929Z,60.10
2019-03-05T16:55:45.461Z,60.30
2019-03-05T16:58:32.676Z,58.20
2019-03-05T17:01:14.526Z,56.80
2019-03-05T17:04:00.867Z,56.80
2019-03-05T17:06:36.970Z,58.70
2019-03-05T17:09:13.800Z,58.70
2019-03-05T17:11:58.114Z,59.70
2019-03-05T17:14:27.021Z,60.20
2019-03-05T17:16:55.523Z,59.90
2019-03-05T17:19:24.012Z,60.80
2019-03-05T17:21:53.205Z,61.90
2019-03-05T17:24:21.875Z,61.10
2019-03-05T17:26:50.392Z,60.00
2019-03-05T17:29:19.328Z,61.10
2019-03-05T17:31:59.398Z,61.90
2019-03-05T17:34:27.947Z,60.70
2019-03-05T17:36:56.379Z,61.30
2019-03-05T17:39:25.181Z,59.80
2019-03-05T17:41:53.605Z,59.90
2019-03-05T17:44:22.017Z,60.60
2019-03-05T17:46:50.469Z,60.90
2019-03-05T17:49:18.882Z,63.10
2019-03-05T17:51:47.309Z,65.60
2019-03-05T17:54:15.842Z,67.90
2019-03-05T17:56:44.257Z,71.10
2019-03-05T17:59:12.886Z,72.70
2019-03-05T18:01:41.490Z,73.60
2019-03-05T18:04:09.921Z,74.20
2019-03-05T18:06:38.352Z,76.30
2019-03-05T18:09:07.737Z,79.30
2019-03-05T18:11:36.177Z,80.60
2019-03-05T18:14:05.031Z,81.40
2019-03-05T18:16:33.437Z,83.60
2019-03-05T18:19:01.885Z,83.70
2019-03-05T18:21:30.346Z,84.20
2019-03-05T18:23:58.755Z,84.40
2019-03-05T18:26:27.155Z,84.70
2019-03-05T18:28:57.263Z,84.10
2019-03-05T18:31:25.844Z,83.90
2019-03-05T18:33:54.393Z,83.40
2019-03-05T18:36:22.903Z,84.40
2019-03-05T18:38:51.338Z,83.10
2019-03-05T18:41:19.726Z,82.70
2019-03-05T18:43:48.162Z,83.20
2019-03-05T18:46:16.625Z,83.70
2019-03-05T18:48:45.404Z,82.80
2019-03-05T18:51:13.859Z,83.80
2019-03-05T18:53:42.374Z,81.90
2019-03-05T18:56:10.764Z,82.50
2019-03-05T18:58:39.177Z,81.30
2019-03-05T19:01:09.739Z,82.20
2019-03-05T19:03:38.686Z,80.90
2019-03-05T19:06:07.298Z,78.10
2019-03-05T19:08:35.796Z,80.50
2019-03-05T19:11:04.935Z,78.40
2019-03-05T19:13:33.592Z,78.20
2019-03-05T19:16:03.018Z,79.00
2019-03-05T19:18:31.567Z,78.90
2019-03-05T19:21:00.066Z,79.80
2019-03-05T19:23:28.481Z,80.90
2019-03-05T19:25:57.069Z,81.90
2019-03-05T19:28:25.495Z,82.30
2019-03-05T19:30:53.898Z,81.00
2019-03-05T19:33:22.561Z,82.00
2019-03-05T19:35:51.021Z,83.50
2019-03-05T19:38:19.733Z,82.60
2019-03-05T19:40:48.746Z,83.80
2019-03-05T19:43:17.232Z,83.70
2019-03-05T19:45:45.733Z,83.90
2019-03-05T19:48:14.164Z,84.40
2019-03-05T19:50:43.038Z,83.50
2019-03-05T19:53:11.518Z,84.40
2019-03-05T19:55:39.974Z,84.40
2019-03-05T19:58:09.140Z,84.40
2019-03-05T20:00:52.780Z,85.30
2019-03-05T20:03:21.287Z,83.80
2019-03-05T20:05:49.740Z,84.30
2019-03-05T20:08:18.153Z,85.70
2019-03-05T20:10:47.021Z,86.00
2019-03-05T20:13:15.695Z,84.40
2019-03-05T20:15:44.188Z,84.40
2019-03-05T20:18:12.586Z,84.60
2019-03-05T20:20:41.033Z,84.40
2019-03-05T20:23:09.506Z,84.80
2019-03-05T20:25:38.591Z,83.80
2019-03-05T20:28:07.264Z,83.90
2019-03-05T20:30:35.671Z,84.40
2019-03-05T20:33:04.183Z,84.40
2019-03-05T20:35:32.690Z,84.40
2019-03-05T20:38:01.097Z,84.60
2019-03-05T20:40:30.605Z,85.00
2019-03-05T20:43:06.827Z,86.00
2019-03-05T20:45:44.392Z,85.40
2019-03-05T20:48:12.861Z,86.00
2019-03-05T20:50:41.570Z,85.40
2019-03-05T20:53:10.053Z,85.30
2019-03-05T20:55:38.478Z,84.60
2019-03-05T20:58:06.981Z,83.90
2019-03-05T21:00:37.738Z,83.60
2019-03-05T21:03:09.220Z,84.90
2019-03-05T21:05:46.909Z,85.00
2019-03-05T21:08:15.316Z,86.40
2019-03-05T21:10:44.062Z,86.40
2019-03-05T21:13:12.503Z,86.00
2019-03-05T21:15:41.193Z,85.20
2019-03-05T21:18:12.055Z,84.60
2019-03-05T21:20:40.773Z,84.00
2019-03-05T21:23:09.278Z,85.00
2019-03-05T21:25:37.773Z,85.50
2019-03-05T21:28:06.710Z,82.90
2019-03-05T21:30:35.507Z,83.10
2019-03-05T21:33:03.991Z,82.60
2019-03-05T21:35:32.505Z,83.60
2019-03-05T21:38:01.042Z,82.90
2019-03-05T21:40:32.039Z,84.00
2019-03-05T21:43:00.469Z,83.50
2019-03-05T21:45:40.599Z,83.70
2019-03-05T21:48:09.571Z,83.20
2019-03-05T21:50:37.968Z,83.70
2019-03-05T21:53:06.527Z,83.30
2019-03-05T21:55:35.034Z,82.60
2019-03-05T21:58:03.542Z,81.80
2019-03-05T22:00:34.454Z,82.30
2019-03-05T22:03:03.166Z,82.50
2019-03-05T22:05:31.671Z,83.40
2019-03-05T22:08:00.095Z,85.20
2019-03-05T22:10:28.812Z,86.30
2019-03-05T22:12:57.436Z,86.50
2019-03-05T22:15:32.829Z,87.40
2019-03-05T22:18:01.274Z,87.20
2019-03-05T22:20:29.685Z,87.70
2019-03-05T22:22:58.545Z,87.10
2019-03-05T22:25:28.947Z,85.70
2019-03-05T22:27:57.738Z,86.00
2019-03-05T22:30:36.577Z,85.90
2019-03-05T22:33:05.132Z,84.80
2019-03-05T22:35:33.529Z,85.20
2019-03-05T22:38:01.980Z,84.80
2019-03-05T22:40:30.726Z,84.00
2019-03-05T22:42:59.135Z,84.30
2019-03-05T22:45:33.370Z,85.00
2019-03-05T22:48:01.777Z,84.70
2019-03-05T22:50:30.183Z,84.40
2019-03-05T22:52:58.601Z,85.20
2019-03-05T22:55:27.010Z,85.40
2019-03-05T22:57:55.815Z,85.90
2019-03-05T23:00:38.032Z,85.70
2019-03-05T23:03:09.503Z,85.90
2019-03-05T23:05:37.966Z,86.00
2019-03-05T23:08:06.919Z,85.30
2019-03-05T23:10:35.627Z,85.00
2019-03-05T23:13:04.761Z,82.90
2019-03-05T23:15:34.004Z,85.60
2019-03-05T23:18:02.406Z,86.80
2019-03-05T23:20:31.228Z,87.80
2019-03-05T23:22:59.702Z,88.70
2019-03-05T23:25:28.191Z,89.00
2019-03-05T23:27:56.862Z,88.80
2019-03-05T23:30:26.071Z,87.80
2019-03-05T23:32:54.859Z,88.20
2019-03-05T23:35:23.258Z,88.80
2019-03-05T23:37:51.689Z,87.90
2019-03-05T23:40:20.443Z,87.80
2019-03-05T23:42:48.947Z,89.20
2019-03-05T23:45:20.817Z,89.30
2019-03-05T23:47:49.243Z,89.60
2019-03-05T23:50:18.021Z,90.00
2019-03-05T23:52:46.502Z,89.90
2019-03-05T23:55:15.778Z,90.10
2019-03-05T23:57:44.453Z,90.30
